Time;durP1;ratioP1;P1;durP2;ratioP2;P2;SDS_P1;SDS_P2;PMS_P1;PMS_P2;Temp;Humidity;BMP_temperature;BMP_pressure;BME280_temperature;BME280_humidity;BME280_pressure;Samples;Min_cycle;Max_cycle;Signal;HPM_P1;HPM_P2
2021/03/30 00:01:07;;;;;;;2.60;1.90;;;;;;;18.81;53.18;103040.53;5001945;28;20501;-74
2021/03/30 00:03:34;;;;;;;2.28;1.20;;;;;;;18.76;53.36;103040.38;5018884;28;20100;-74
2021/03/30 00:05:59;;;;;;;1.63;1.20;;;;;;;18.80;53.29;103047.50;5002133;28;20038;-72
2021/03/30 00:08:25;;;;;;;1.63;1.33;;;;;;;18.80;53.29;103037.00;5036345;28;20380;-72
2021/03/30 00:10:50;;;;;;;1.33;1.23;;;;;;;18.80;53.11;103047.50;5017246;28;20458;-74
2021/03/30 00:13:15;;;;;;;2.67;1.33;;;;;;;18.77;53.33;103050.03;5017476;28;20029;-72
2021/03/30 00:15:41;;;;;;;2.53;1.63;;;;;;;18.74;53.23;103034.19;5014316;28;20057;-75
2021/03/30 00:18:06;;;;;;;1.90;1.55;;;;;;;18.78;53.19;103043.06;5006997;28;20121;-75
2021/03/30 00:20:32;;;;;;;2.15;1.40;;;;;;;18.74;53.41;103042.06;4983398;28;20084;-73
2021/03/30 00:22:58;;;;;;;2.10;1.70;;;;;;;18.75;53.12;103041.22;5033882;28;20134;-73
2021/03/30 00:25:23;;;;;;;2.10;1.55;;;;;;;18.75;53.03;103048.19;5035328;28;20021;-74
2021/03/30 00:27:49;;;;;;;2.38;1.58;;;;;;;18.80;53.13;103054.47;5019609;28;20096;-75
2021/03/30 00:30:15;;;;;;;2.08;1.27;;;;;;;18.76;53.08;103048.25;5018033;28;20030;-75
2021/03/30 00:32:40;;;;;;;1.40;1.10;;;;;;;18.73;53.22;103042.03;4984420;28;20042;-73
2021/03/30 00:35:07;;;;;;;2.78;1.35;;;;;;;18.75;53.15;103054.34;5000213;28;20029;-74
2021/03/30 00:37:33;;;;;;;1.80;1.15;;;;;;;18.76;53.43;103049.97;5003489;28;20475;-75
2021/03/30 00:39:58;;;;;;;2.10;1.38;;;;;;;18.72;53.09;103043.75;5022466;28;20033;-74
2021/03/30 00:42:24;;;;;;;2.45;1.77;;;;;;;18.60;53.02;103030.28;5002610;28;20041;-73
2021/03/30 00:44:51;;;;;;;3.05;1.92;;;;;;;18.75;53.15;103050.81;5016164;28;20021;-74
2021/03/30 00:47:18;;;;;;;2.88;1.33;;;;;;;18.76;53.15;103042.13;5001227;28;20029;-75
2021/03/30 00:49:44;;;;;;;1.85;1.30;;;;;;;18.67;53.12;103029.66;5003094;28;20131;-75
2021/03/30 00:52:10;;;;;;;2.38;1.48;;;;;;;18.73;53.01;103044.63;5014612;28;20398;-74
2021/03/30 00:54:37;;;;;;;1.80;1.30;;;;;;;18.75;52.99;103054.34;4999185;28;20034;-73
2021/03/30 00:57:04;;;;;;;2.00;1.40;;;;;;;18.74;53.30;103049.94;5034233;28;20018;-72
2021/03/30 00:59:29;;;;;;;1.88;1.30;;;;;;;18.72;52.96;103043.75;5019452;28;20030;-71
2021/03/30 01:01:55;;;;;;;1.90;1.10;;;;;;;18.70;53.00;103042.81;4999535;28;20037;-73
2021/03/30 01:04:20;;;;;;;1.75;1.10;;;;;;;18.65;52.96;103033.94;5005583;28;20410;-73
2021/03/30 01:06:46;;;;;;;1.95;1.10;;;;;;;18.65;53.02;103033.06;5016704;28;20033;-75
2021/03/30 01:09:38;;;;;;;2.03;1.45;;;;;;;18.72;53.07;103046.38;5034103;28;20047;-72
2021/03/30 01:12:28;;;;;;;1.58;1.08;;;;;;;18.72;52.93;103042.84;5032197;28;20029;-72
2021/03/30 01:14:56;;;;;;;2.30;1.52;;;;;;;18.72;52.95;103053.34;5029158;28;20048;-75
2021/03/30 01:17:33;;;;;;;2.92;1.60;;;;;;;18.63;52.84;103032.13;5034710;28;20029;-74
2021/03/30 01:20:23;;;;;;;2.92;1.63;;;;;;;18.69;52.90;103040.19;5033898;28;20446;-75
2021/03/30 01:22:57;;;;;;;2.13;1.60;;;;;;;18.70;52.83;103041.91;5029903;28;20188;-75
2021/03/30 01:25:27;;;;;;;2.42;1.70;;;;;;;18.70;52.73;103036.69;5032385;28;20025;-73
2021/03/30 01:28:02;;;;;;;2.33;1.70;;;;;;;18.70;53.01;103041.91;5040873;28;20033;-73
2021/03/30 01:30:32;;;;;;;4.20;2.00;;;;;;;18.67;53.01;103031.38;5019140;28;20395;-74
2021/03/30 01:33:01;;;;;;;1.75;1.20;;;;;;;18.69;52.84;103037.56;5017555;28;20034;-73
2021/03/30 01:35:28;;;;;;;2.20;1.20;;;;;;;18.67;52.68;103034.88;5036554;28;20029;-75
2021/03/30 01:37:54;;;;;;;1.85;1.27;;;;;;;18.67;52.92;103032.25;5021471;28;20064;-75
2021/03/30 01:40:25;;;;;;;1.95;1.35;;;;;;;18.65;52.77;103018.22;5032655;28;20380;-76
2021/03/30 01:42:53;;;;;;;2.42;1.27;;;;;;;18.62;52.86;103018.13;5022607;28;20025;-73
2021/03/30 01:45:19;;;;;;;3.17;1.48;;;;;;;18.68;52.88;103028.81;5022105;28;20033;-73
2021/03/30 01:47:45;;;;;;;2.00;1.23;;;;;;;18.63;52.83;103022.53;5039978;28;20091;-73
2021/03/30 01:50:12;;;;;;;2.05;1.40;;;;;;;18.67;52.67;103029.66;5043454;28;20049;-74
2021/03/30 01:52:38;;;;;;;4.53;1.77;;;;;;;18.64;52.71;103024.31;5038476;28;20582;-73
2021/03/30 01:55:08;;;;;;;2.72;2.13;;;;;;;18.63;52.90;103019.00;5008867;28;20057;-73
2021/03/30 01:57:37;;;;;;;2.03;1.40;;;;;;;18.63;52.44;103025.16;5027171;28;20017;-73
2021/03/30 02:00:07;;;;;;;1.20;1.10;;;;;;;18.57;52.69;103006.56;5038801;28;20060;-73
2021/03/30 02:02:32;;;;;;;2.17;1.40;;;;;;;18.57;52.59;103014.44;5036210;28;20104;-76
2021/03/30 02:05:00;;;;;;;2.65;1.58;;;;;;;18.63;52.63;103021.63;5038659;28;20103;-72
2021/03/30 02:07:28;;;;;;;2.30;1.40;;;;;;;18.62;52.57;103025.09;5037289;28;20059;-73
2021/03/30 02:09:57;;;;;;;2.92;1.30;;;;;;;18.58;52.63;103021.50;5037190;28;20044;-73
2021/03/30 02:12:29;;;;;;;2.13;1.40;;;;;;;18.61;52.70;103026.81;5037983;28;20053;-72
2021/03/30 02:14:55;;;;;;;2.88;2.00;;;;;;;18.59;52.53;103023.28;4998089;28;20115;-73
2021/03/30 02:17:46;;;;;;;1.83;1.42;;;;;;;18.59;52.80;103023.28;5029308;28;20486;-74
2021/03/30 02:20:17;;;;;;;3.08;1.38;;;;;;;18.57;52.68;103022.28;5027752;28;20038;-73
2021/03/30 02:23:04;;;;;;;2.30;1.40;;;;;;;18.58;52.84;103018.88;5037396;28;20036;-74
2021/03/30 02:25:31;;;;;;;2.67;1.25;;;;;;;18.60;52.70;103019.81;5047312;28;20098;-74
2021/03/30 02:28:03;;;;;;;2.00;1.45;;;;;;;18.53;52.69;103013.47;5051636;28;20021;-75
2021/03/30 02:30:30;;;;;;;2.00;1.13;;;;;;;18.55;52.60;103010.91;5039428;28;20022;-73
2021/03/30 02:32:56;;;;;;;3.65;1.70;;;;;;;18.56;52.53;103010.06;5020875;28;20037;-72
2021/03/30 02:35:24;;;;;;;3.15;1.65;;;;;;;18.60;52.49;103018.91;5019362;28;20478;-73
2021/03/30 02:37:51;;;;;;;2.28;1.35;;;;;;;18.54;52.50;103004.78;5034807;28;20033;-73
2021/03/30 02:40:20;;;;;;;1.83;1.30;;;;;;;18.59;52.47;103020.66;5051159;28;20029;-74
2021/03/30 02:42:47;;;;;;;2.80;1.75;;;;;;;18.56;52.49;103010.94;5037732;28;20035;-73
2021/03/30 02:45:14;;;;;;;1.50;1.20;;;;;;;18.53;52.53;103018.72;5034081;28;20472;-74
2021/03/30 02:47:42;;;;;;;2.28;1.23;;;;;;;18.52;52.56;103013.44;5048258;28;20017;-76
2021/03/30 02:50:10;;;;;;;1.73;1.42;;;;;;;18.59;52.46;103015.41;5020785;28;20142;-72
2021/03/30 02:52:35;;;;;;;2.38;1.73;;;;;;;18.47;52.58;102994.06;5017276;28;20049;-74
2021/03/30 02:55:04;;;;;;;3.10;1.35;;;;;;;18.54;52.56;103011.75;5019656;28;20056;-75
2021/03/30 02:57:30;;;;;;;1.85;1.35;;;;;;;18.54;52.49;103011.75;5022360;28;20056;-73
2021/03/30 02:59:56;;;;;;;2.47;1.40;;;;;;;18.36;52.58;102985.00;5019458;28;20098;-73
2021/03/30 03:02:24;;;;;;;2.45;1.55;;;;;;;18.51;52.54;103019.50;5035383;28;20123;-73
2021/03/30 03:04:49;;;;;;;1.95;1.30;;;;;;;18.50;52.29;103016.00;5021902;28;20036;-76
2021/03/30 03:07:16;;;;;;;4.00;1.35;;;;;;;18.56;52.41;103033.66;5011505;28;20025;-73
2021/03/30 03:09:43;;;;;;;2.25;1.55;;;;;;;18.55;52.35;103035.38;5021548;28;20053;-73
2021/03/30 03:12:11;;;;;;;3.10;1.48;;;;;;;18.52;52.39;103027.44;5022234;28;20029;-73
2021/03/30 03:14:38;;;;;;;1.60;1.20;;;;;;;18.50;52.57;103025.59;5020965;28;20033;-73
2021/03/30 03:17:04;;;;;;;2.92;1.95;;;;;;;18.52;52.44;103029.16;5021156;28;20053;-73
2021/03/30 03:19:31;;;;;;;1.90;1.30;;;;;;;18.49;52.43;103026.44;5005387;28;20080;-73
2021/03/30 03:21:57;;;;;;;2.50;1.52;;;;;;;18.51;52.41;103023.03;5013365;28;20087;-74
2021/03/30 03:24:23;;;;;;;1.85;1.20;;;;;;;18.50;52.46;103020.34;5003438;28;20468;-73
2021/03/30 03:26:48;;;;;;;1.75;1.40;;;;;;;18.52;52.44;103030.03;4996229;28;20026;-73
2021/03/30 03:29:16;;;;;;;2.88;1.52;;;;;;;18.51;52.45;103030.00;5015257;28;20037;-74
2021/03/30 03:31:43;;;;;;;1.98;1.50;;;;;;;18.50;52.37;103031.72;5035703;28;20029;-74
2021/03/30 03:34:10;;;;;;;1.70;1.40;;;;;;;18.45;52.41;103032.41;5019207;28;20063;-74
2021/03/30 03:36:47;;;;;;;2.58;1.75;;;;;;;18.46;52.49;103035.09;4997262;28;20034;-75
2021/03/30 03:39:14;;;;;;;1.85;1.13;;;;;;;18.43;52.48;103037.63;5016494;28;20037;-72
2021/03/30 03:41:41;;;;;;;2.13;1.40;;;;;;;18.51;52.48;103046.59;5024297;28;20115;-73
2021/03/30 03:44:08;;;;;;;1.63;1.13;;;;;;;18.51;52.36;103050.97;5009732;28;20099;-75
2021/03/30 03:46:34;;;;;;;2.30;1.55;;;;;;;18.45;52.43;103035.03;5036166;28;20033;-73
2021/03/30 03:49:00;;;;;;;2.08;1.48;;;;;;;18.39;52.45;103032.25;5010178;28;20045;-72
2021/03/30 03:51:31;;;;;;;3.05;1.52;;;;;;;18.42;52.37;103034.97;5054996;28;20073;-73
2021/03/30 03:54:00;;;;;;;3.13;1.67;;;;;;;18.44;52.53;103042.00;5029326;28;20556;-72
2021/03/30 03:56:30;;;;;;;2.38;1.65;;;;;;;18.41;52.37;103036.69;5027679;28;20028;-73
2021/03/30 03:59:00;;;;;;;2.92;1.60;;;;;;;18.43;52.23;103044.63;5055642;28;20055;-73
2021/03/30 04:02:21;;;;;;;2.72;1.27;;;;;;;18.47;52.42;103057.81;5050431;28;20048;-72
2021/03/30 04:05:00;;;;;;;2.08;1.48;;;;;;;18.46;52.36;103052.53;5016320;28;20026;-72
2021/03/30 04:07:30;;;;;;;2.03;1.60;;;;;;;18.42;52.31;103053.31;5036390;28;20037;-75
2021/03/30 04:09:57;;;;;;;4.88;2.08;;;;;;;18.47;52.18;103059.56;5038532;28;20021;-74
2021/03/30 04:12:26;;;;;;;1.83;1.35;;;;;;;18.42;52.12;103053.31;5035731;28;20025;-75
2021/03/30 04:14:52;;;;;;;2.28;1.42;;;;;;;18.47;52.24;103062.19;5020618;28;20032;-74
2021/03/30 04:17:18;;;;;;;3.95;1.65;;;;;;;18.45;52.22;103062.13;5009196;28;20049;-72
2021/03/30 04:19:44;;;;;;;2.20;1.30;;;;;;;18.43;52.24;103061.22;5045520;28;20478;-73
2021/03/30 04:22:15;;;;;;;3.10;1.55;;;;;;;18.41;52.37;103065.53;5036278;28;20029;-75
2021/03/30 04:24:41;;;;;;;4.13;1.83;;;;;;;18.45;52.23;103076.97;5046606;28;20378;-74
2021/03/30 04:27:11;;;;;;;2.25;1.40;;;;;;;18.45;52.27;103069.97;5035457;28;20021;-75
2021/03/30 04:29:38;;;;;;;1.80;1.48;;;;;;;18.42;52.15;103064.69;5051916;28;20029;-73
2021/03/30 04:32:05;;;;;;;1.77;1.35;;;;;;;18.43;52.29;103071.69;5045040;28;20033;-74
2021/03/30 04:34:30;;;;;;;1.85;1.10;;;;;;;18.42;52.31;103069.03;5028267;28;20079;-72
2021/03/30 04:36:56;;;;;;;5.47;1.65;;;;;;;18.34;52.34;103057.41;5034280;28;20036;-71
2021/03/30 04:39:21;;;;;;;5.15;1.50;;;;;;;18.39;52.47;103061.97;4999006;28;20548;-74
2021/03/30 04:41:47;;;;;;;2.80;1.73;;;;;;;18.39;52.40;103063.69;5031078;28;20032;-73
2021/03/30 04:44:12;;;;;;;3.38;1.58;;;;;;;18.42;52.35;103061.16;5031376;28;20017;-73
2021/03/30 04:46:37;;;;;;;3.78;1.75;;;;;;;18.43;52.44;103069.06;5050268;28;20029;-74
2021/03/30 04:49:03;;;;;;;2.45;1.70;;;;;;;18.47;52.65;103072.66;5029407;28;20050;-76
2021/03/30 04:51:28;;;;;;;2.58;1.88;;;;;;;18.43;52.33;103073.44;5017137;28;20034;-76
2021/03/30 04:53:54;;;;;;;2.53;1.60;;;;;;;18.43;52.51;103073.44;5035226;28;20475;-76
2021/03/30 04:56:21;;;;;;;4.70;2.33;;;;;;;18.45;52.52;103077.84;5011569;28;20029;-75
2021/03/30 04:58:46;;;;;;;3.85;2.55;;;;;;;18.45;52.47;103083.09;5016402;28;20065;-73
2021/03/30 05:01:11;;;;;;;2.55;1.77;;;;;;;18.43;52.83;103083.91;5013603;28;20057;-74
2021/03/30 05:03:36;;;;;;;3.78;2.00;;;;;;;18.44;52.70;103085.66;5018363;28;20494;-74
2021/03/30 05:06:02;;;;;;;2.13;1.00;;;;;;;18.47;52.62;103089.28;5028735;28;20475;-74
2021/03/30 05:08:27;;;;;;;3.10;1.70;;;;;;;18.46;52.68;103089.22;5032579;28;20029;-72
2021/03/30 05:10:53;;;;;;;2.65;1.67;;;;;;;18.41;52.59;103081.25;5037270;28;20037;-73
2021/03/30 05:13:18;;;;;;;2.13;1.20;;;;;;;18.45;52.70;103090.06;5039055;28;20095;-75
2021/03/30 05:15:44;;;;;;;4.68;1.45;;;;;;;18.48;52.98;103096.28;5019555;28;20689;-75
2021/03/30 05:18:09;;;;;;;3.38;2.50;;;;;;;18.63;52.57;103095.91;5004491;28;20084;-75
2021/03/30 05:20:35;;;;;;;4.60;1.60;;;;;;;18.66;52.27;103088.16;5045625;28;20088;-75
2021/03/30 05:23:00;;;;;;;2.67;1.67;;;;;;;18.69;52.64;103095.22;5050902;28;20033;-75
2021/03/30 05:25:25;;;;;;;4.47;2.50;;;;;;;18.67;52.75;103084.69;5016167;28;20030;-74
2021/03/30 05:27:51;;;;;;;3.35;1.63;;;;;;;18.79;52.18;103090.28;5033209;28;20029;-74
2021/03/30 05:30:18;;;;;;;2.75;1.80;;;;;;;18.85;52.17;103100.94;5019669;28;20029;-73
2021/03/30 05:32:43;;;;;;;5.47;2.10;;;;;;;18.76;52.65;103087.56;5024809;28;20168;-74
2021/03/30 05:35:11;;;;;;;2.78;1.40;;;;;;;18.85;52.45;103098.31;5016470;28;20113;-74
2021/03/30 05:37:36;;;;;;;2.30;1.73;;;;;;;18.96;52.19;103093.38;5031129;28;20030;-74
2021/03/30 05:40:06;;;;;;;3.65;1.63;;;;;;;18.91;52.31;103090.63;5000687;28;20039;-73
2021/03/30 05:42:32;;;;;;;2.65;1.70;;;;;;;18.86;52.59;103102.72;5018959;28;20041;-74
2021/03/30 05:44:57;;;;;;;3.15;1.45;;;;;;;18.91;52.24;103092.38;5033865;28;20133;-73
2021/03/30 05:47:26;;;;;;;2.53;1.70;;;;;;;18.97;52.19;103094.25;5026157;28;20125;-72
2021/03/30 05:49:53;;;;;;;3.80;2.38;;;;;;;19.02;52.21;103105.78;5029125;28;20052;-73
2021/03/30 05:52:30;;;;;;;3.30;1.67;;;;;;;19.01;52.40;103106.63;5039214;28;20024;-71
2021/03/30 05:54:57;;;;;;;3.83;1.88;;;;;;;19.06;52.34;103100.69;5039172;28;20027;-76
2021/03/30 05:57:28;;;;;;;4.78;1.67;;;;;;;19.04;52.14;103094.50;5039332;28;20126;-75
2021/03/30 05:59:56;;;;;;;3.75;1.70;;;;;;;19.05;52.56;103103.25;5058517;28;20028;-73
2021/03/30 06:02:27;;;;;;;3.15;1.42;;;;;;;18.94;52.50;103088.94;5034847;28;20083;-73
2021/03/30 06:04:55;;;;;;;2.50;1.70;;;;;;;19.02;52.45;103105.78;5018497;28;20467;-74
2021/03/30 06:07:20;;;;;;;2.10;1.60;;;;;;;19.08;52.36;103117.34;5034281;28;20036;-74
2021/03/30 06:09:47;;;;;;;4.57;1.73;;;;;;;19.04;52.64;103111.97;5039410;28;20017;-74
2021/03/30 06:12:15;;;;;;;2.95;1.60;;;;;;;18.98;52.37;103098.66;5039775;28;20032;-75
2021/03/30 06:14:42;;;;;;;2.40;1.58;;;;;;;19.11;52.17;103117.41;5040262;28;20120;-73
2021/03/30 06:17:15;;;;;;;3.80;1.73;;;;;;;19.11;52.41;103113.91;5037659;28;20032;-74
2021/03/30 06:19:50;;;;;;;3.03;1.67;;;;;;;19.08;52.25;103113.84;5031517;28;20040;-74
2021/03/30 06:22:15;;;;;;;3.47;1.30;;;;;;;19.07;52.20;103099.84;5035269;28;20024;-74
2021/03/30 06:24:42;;;;;;;2.05;1.52;;;;;;;19.08;52.53;103103.34;5012100;28;20495;-75
2021/03/30 06:27:07;;;;;;;1.75;1.38;;;;;;;19.14;52.23;103127.13;5041379;28;20045;-73
2021/03/30 06:29:36;;;;;;;1.60;1.20;;;;;;;19.13;52.14;103126.22;5044958;28;20028;-73
2021/03/30 06:32:08;;;;;;;2.35;1.60;;;;;;;19.21;52.13;103118.59;5025124;28;20044;-72
2021/03/30 06:34:35;;;;;;;2.50;1.52;;;;;;;19.12;52.10;103102.56;5052935;28;20021;-72
2021/03/30 06:37:00;;;;;;;2.35;1.38;;;;;;;19.18;52.05;103119.38;5025180;28;20103;-74
2021/03/30 06:39:35;;;;;;;2.33;1.27;;;;;;;19.27;51.81;103118.75;5042536;28;20470;-73
2021/03/30 06:42:07;;;;;;;2.35;1.20;;;;;;;19.24;52.07;103116.03;5046662;28;20095;-73
2021/03/30 06:44:35;;;;;;;4.00;2.53;;;;;;;19.27;51.88;103122.25;4991873;28;20107;-75
2021/03/30 06:47:03;;;;;;;4.05;2.35;;;;;;;19.21;52.00;103123.84;5055494;28;20056;-75
2021/03/30 06:49:31;;;;;;;2.47;1.58;;;;;;;19.17;52.28;103137.69;5043433;28;20503;-76
2021/03/30 06:51:57;;;;;;;2.65;1.88;;;;;;;19.12;52.27;103134.03;5052408;28;20040;-75
2021/03/30 06:54:23;;;;;;;2.47;1.90;;;;;;;19.15;52.35;103136.75;5053898;28;20391;-74
2021/03/30 06:56:49;;;;;;;2.33;1.40;;;;;;;19.15;52.22;103135.03;5020022;28;20044;-76
2021/03/30 06:59:15;;;;;;;2.78;1.40;;;;;;;19.12;52.36;103134.94;5026069;28;20044;-74
2021/03/30 07:01:41;;;;;;;2.45;1.60;;;;;;;19.12;52.29;103136.66;5051936;28;20029;-73
2021/03/30 07:04:07;;;;;;;2.28;1.65;;;;;;;19.12;52.43;103144.53;5042076;28;20033;-75
2021/03/30 07:06:35;;;;;;;2.33;1.55;;;;;;;19.09;52.25;103142.69;5037111;28;20028;-75
2021/03/30 07:09:01;;;;;;;2.90;1.67;;;;;;;19.09;52.42;103139.19;5027301;28;20020;-75
2021/03/30 07:11:27;;;;;;;2.80;1.90;;;;;;;19.12;52.17;103136.66;5056740;28;20024;-73
2021/03/30 07:13:52;;;;;;;4.32;1.98;;;;;;;19.11;52.18;103134.88;5021794;28;20123;-74
2021/03/30 07:16:25;;;;;;;2.33;1.70;;;;;;;19.13;52.00;103138.44;5021166;28;20072;-72
2021/03/30 07:18:54;;;;;;;2.38;2.03;;;;;;;19.11;52.12;103140.13;5029321;28;20086;-74
2021/03/30 07:21:23;;;;;;;2.80;1.90;;;;;;;19.03;52.01;103113.69;5055656;28;20025;-72
2021/03/30 07:24:10;;;;;;;2.40;1.80;;;;;;;19.11;51.91;103129.63;5038498;28;20030;-75
2021/03/30 07:26:41;;;;;;;3.38;2.00;;;;;;;19.16;51.89;103142.06;5035828;28;20041;-73
2021/03/30 07:29:10;;;;;;;2.85;1.80;;;;;;;19.15;51.84;103140.28;5028461;28;20114;-76
2021/03/30 07:31:51;;;;;;;3.70;1.75;;;;;;;19.16;51.72;103143.78;5033076;28;20039;-73
2021/03/30 07:34:23;;;;;;;4.97;2.08;;;;;;;19.14;51.83;103146.38;5055775;28;20391;-73
2021/03/30 07:36:54;;;;;;;2.25;1.50;;;;;;;19.13;51.83;103135.81;5026995;28;20029;-73
2021/03/30 07:39:21;;;;;;;5.50;2.40;;;;;;;19.17;51.75;103153.44;5049895;28;20020;-74
2021/03/30 07:41:47;;;;;;;2.42;1.63;;;;;;;19.13;51.81;103136.72;5018407;28;20040;-74
2021/03/30 07:44:13;;;;;;;2.75;1.60;;;;;;;19.14;51.83;103140.22;5002269;28;20025;-74
2021/03/30 07:46:40;;;;;;;3.78;1.60;;;;;;;19.14;51.69;103134.97;5045738;28;20021;-72
2021/03/30 07:49:06;;;;;;;2.65;1.83;;;;;;;19.15;51.70;103144.63;5034371;28;20140;-74
2021/03/30 07:51:39;;;;;;;2.55;2.00;;;;;;;19.19;51.71;103149.13;5035939;28;20030;-72
2021/03/30 07:54:10;;;;;;;3.75;2.33;;;;;;;19.21;51.69;103143.06;5030758;28;20418;-74
2021/03/30 07:56:38;;;;;;;2.67;1.88;;;;;;;19.23;51.64;103154.47;5036782;28;20025;-72
2021/03/30 07:59:04;;;;;;;2.50;1.80;;;;;;;19.27;51.58;103144.97;5034625;28;20383;-73
2021/03/30 08:01:32;;;;;;;2.53;1.67;;;;;;;19.15;51.69;103131.50;5026066;28;20105;-74
2021/03/30 08:04:00;;;;;;;2.45;1.60;;;;;;;19.25;51.66;103151.91;5020661;28;20030;-73
2021/03/30 08:06:27;;;;;;;2.90;2.00;;;;;;;19.27;51.99;103156.34;5034479;28;20021;-73
2021/03/30 08:08:59;;;;;;;3.20;1.80;;;;;;;19.27;52.07;103158.97;5017801;28;20021;-74
2021/03/30 08:11:39;;;;;;;3.33;1.85;;;;;;;19.21;51.93;103148.28;5025471;28;20483;-72
2021/03/30 08:14:06;;;;;;;3.20;1.60;;;;;;;19.27;51.99;103161.59;5018244;28;20025;-73
2021/03/30 08:16:37;;;;;;;3.30;2.05;;;;;;;19.28;51.99;103162.50;5016722;28;20108;-73
2021/03/30 08:19:12;;;;;;;2.67;1.40;;;;;;;19.29;52.34;103164.28;5033778;28;20029;-73
2021/03/30 08:22:06;;;;;;;3.67;2.70;;;;;;;19.30;52.07;103162.53;5018226;28;20037;-74
2021/03/30 08:24:40;;;;;;;2.63;1.90;;;;;;;19.32;52.06;103158.22;5035110;28;20078;-74
2021/03/30 08:27:31;;;;;;;2.97;2.08;;;;;;;19.26;52.12;103151.94;5016765;28;20037;-72
2021/03/30 08:30:20;;;;;;;3.55;1.65;;;;;;;19.32;52.04;103168.72;5030286;28;20029;-74
2021/03/30 08:32:49;;;;;;;2.85;2.00;;;;;;;19.28;51.87;103159.88;5015127;28;20061;-74
2021/03/30 08:35:30;;;;;;;2.85;2.13;;;;;;;19.32;51.99;103169.63;5027617;28;20116;-73
2021/03/30 08:37:56;;;;;;;2.78;1.60;;;;;;;19.32;52.11;103174.88;5033656;28;20029;-73
2021/03/30 08:40:34;;;;;;;2.58;2.10;;;;;;;19.32;51.59;103169.63;5035489;28;20025;-75
2021/03/30 08:43:00;;;;;;;2.67;1.88;;;;;;;19.29;52.19;103174.78;5016449;28;20031;-72
2021/03/30 08:45:25;;;;;;;3.45;2.25;;;;;;;19.31;52.22;103174.81;4999979;28;20029;-73
2021/03/30 08:47:50;;;;;;;2.42;1.60;;;;;;;19.31;52.05;103169.56;5026653;28;20061;-74
2021/03/30 08:50:28;;;;;;;2.78;1.85;;;;;;;19.28;52.12;103165.13;5027602;28;20053;-72
2021/03/30 08:52:56;;;;;;;3.20;2.17;;;;;;;19.25;52.02;103157.16;5053634;28;20048;-73
2021/03/30 08:55:29;;;;;;;2.63;1.85;;;;;;;19.30;52.03;103166.06;5055024;28;20039;-74
2021/03/30 08:57:57;;;;;;;;;;;;;;;19.34;52.07;103175.81;5043912;28;20510;-75
2021/03/30 09:00:23;;;;;;;3.63;2.45;;;;;;;19.29;52.05;103177.38;5055412;28;19920;-75
2021/03/30 09:03:04;;;;;;;2.75;1.73;;;;;;;19.30;52.08;103181.78;5040713;28;20048;-74
2021/03/30 09:05:36;;;;;;;4.45;1.73;;;;;;;19.29;52.06;103177.38;5045097;28;20025;-73
2021/03/30 09:08:01;;;;;;;4.20;2.05;;;;;;;19.31;51.93;103185.31;5048290;28;20036;-75
2021/03/30 09:10:27;;;;;;;2.70;1.50;;;;;;;19.28;52.03;103176.50;5022889;28;20034;-73
2021/03/30 09:13:09;;;;;;;2.10;1.60;;;;;;;19.32;52.05;103193.22;5020768;28;20033;-74
2021/03/30 09:15:34;;;;;;;3.05;2.15;;;;;;;19.28;52.17;103181.75;5038060;28;20033;-74
2021/03/30 09:18:01;;;;;;;3.03;1.80;;;;;;;19.31;52.00;103188.81;5007385;28;20491;-71
2021/03/30 09:20:28;;;;;;;2.78;1.90;;;;;;;19.28;52.00;103193.97;5052501;28;20032;-73
2021/03/30 09:22:57;;;;;;;2.55;2.03;;;;;;;19.29;52.07;103193.13;5035819;28;20025;-73
2021/03/30 09:25:28;;;;;;;2.55;1.65;;;;;;;19.32;51.90;103194.97;5033684;28;20152;-72
2021/03/30 09:27:54;;;;;;;2.45;1.42;;;;;;;19.29;52.25;103195.75;5017402;28;20033;-72
2021/03/30 09:30:21;;;;;;;2.53;1.50;;;;;;;19.34;52.28;103193.28;5018109;28;20040;-74
2021/03/30 09:32:50;;;;;;;2.42;1.42;;;;;;;19.39;52.16;103191.66;5028196;28;20033;-80
2021/03/30 09:35:19;;;;;;;2.80;1.70;;;;;;;19.39;51.87;103186.41;5020620;28;20119;-75
2021/03/30 09:38:03;;;;;;;2.50;1.77;;;;;;;19.39;51.81;103197.78;5042196;28;20036;-74
2021/03/30 09:40:41;;;;;;;4.00;2.03;;;;;;;19.37;51.80;103180.22;5060905;28;20029;-80
2021/03/30 09:43:09;;;;;;;2.78;2.15;;;;;;;19.32;51.98;103180.13;5047586;28;20056;-79
2021/03/30 09:45:35;;;;;;;2.83;2.08;;;;;;;19.36;52.05;103179.34;5055122;28;20374;-74
2021/03/30 09:48:04;;;;;;;5.15;2.15;;;;;;;19.30;51.64;103165.16;5050530;28;20025;-74
2021/03/30 09:50:30;;;;;;;3.85;2.38;;;;;;;19.37;51.83;103185.47;5013000;28;20049;-74
2021/03/30 09:53:04;;;;;;;6.35;2.33;;;;;;;19.37;52.05;103172.34;5004635;28;20029;-74
2021/03/30 09:55:40;;;;;;;4.30;2.50;;;;;;;19.38;52.23;103177.66;5021115;28;20085;-74
2021/03/30 09:58:10;;;;;;;4.30;2.65;;;;;;;19.32;52.21;103169.63;5021346;28;20025;-73
2021/03/30 10:00:41;;;;;;;3.03;2.05;;;;;;;19.33;52.05;103170.50;5024185;28;20029;-74
2021/03/30 10:03:08;;;;;;;6.18;1.95;;;;;;;19.34;51.95;103164.41;5025071;28;20067;-74
2021/03/30 10:05:34;;;;;;;5.85;2.20;;;;;;;19.36;52.00;103179.34;5038331;28;20029;-75
2021/03/30 10:08:00;;;;;;;5.22;2.75;;;;;;;19.31;52.08;103164.31;5042375;28;20474;-75
2021/03/30 10:10:40;;;;;;;2.75;2.00;;;;;;;19.31;52.08;103165.22;5041613;28;20029;-74
2021/03/30 10:13:07;;;;;;;4.05;2.47;;;;;;;19.35;51.81;103171.41;5007891;28;20071;-74
2021/03/30 10:15:40;;;;;;;5.00;2.47;;;;;;;19.28;52.01;103157.25;5009082;28;20033;-73
2021/03/30 10:18:08;;;;;;;4.28;2.33;;;;;;;19.28;51.90;103163.38;5022236;28;20041;-74
2021/03/30 10:20:48;;;;;;;4.60;2.40;;;;;;;19.33;51.82;103168.78;5044842;28;20052;-74
2021/03/30 10:23:19;;;;;;;5.35;2.15;;;;;;;19.34;51.80;103169.66;5033135;28;20475;-76
2021/03/30 10:25:44;;;;;;;2.83;2.08;;;;;;;19.26;51.69;103157.19;5040091;28;20467;-73
2021/03/30 10:28:11;;;;;;;3.65;2.22;;;;;;;19.26;51.79;103156.31;5008314;28;20090;-73
2021/03/30 10:30:47;;;;;;;4.22;2.30;;;;;;;19.26;51.73;103153.69;4993292;28;20021;-74
2021/03/30 10:33:16;;;;;;;4.72;2.50;;;;;;;19.24;51.87;103156.25;5040643;28;20030;-74
2021/03/30 10:35:42;;;;;;;3.15;2.17;;;;;;;19.32;51.51;103160.84;5019996;28;20490;-73
2021/03/30 10:38:08;;;;;;;2.78;1.98;;;;;;;19.32;51.65;103155.59;5011818;28;20033;-75
2021/03/30 10:40:38;;;;;;;4.28;2.42;;;;;;;19.32;51.56;103160.84;5039506;28;20025;-73
2021/03/30 10:43:23;;;;;;;4.60;2.17;;;;;;;19.31;51.59;103159.06;5036568;28;20029;-75
2021/03/30 10:45:50;;;;;;;3.47;2.83;;;;;;;19.22;51.50;103139.59;5013046;28;20108;-73
2021/03/30 10:48:15;;;;;;;3.63;2.03;;;;;;;19.31;51.43;103148.59;5000891;28;20451;-73
2021/03/30 10:50:41;;;;;;;2.42;1.92;;;;;;;19.28;51.46;103141.50;5027757;28;20085;-74
2021/03/30 10:53:07;;;;;;;2.88;2.15;;;;;;;19.30;51.56;103139.81;4998878;28;20041;-73
2021/03/30 10:55:33;;;;;;;2.70;2.08;;;;;;;19.07;51.52;103101.56;5009020;28;20026;-73
2021/03/30 10:57:58;;;;;;;3.08;2.22;;;;;;;19.31;51.42;103138.09;5005489;28;20036;-74
2021/03/30 11:00:24;;;;;;;2.58;2.17;;;;;;;19.27;51.52;103131.84;5011526;28;20036;-73
2021/03/30 11:02:49;;;;;;;2.92;2.05;;;;;;;19.26;51.28;103122.22;5040454;28;20495;-74
2021/03/30 11:05:16;;;;;;;3.25;2.08;;;;;;;19.28;51.40;103129.28;5012112;28;20060;-73
2021/03/30 11:07:41;;;;;;;2.92;2.60;;;;;;;19.28;51.46;103125.78;5019098;28;20033;-73
2021/03/30 11:10:10;;;;;;;3.25;2.55;;;;;;;19.28;51.25;103129.28;4994720;28;20033;-74
2021/03/30 11:12:36;;;;;;;3.20;2.10;;;;;;;19.25;51.39;103118.69;5002456;28;20026;-73
2021/03/30 11:15:04;;;;;;;3.60;2.78;;;;;;;19.25;51.33;103123.94;5022346;28;20116;-74
2021/03/30 11:17:29;;;;;;;3.92;2.50;;;;;;;19.31;51.43;103124.97;5035467;28;20060;-74
2021/03/30 11:19:54;;;;;;;3.35;2.60;;;;;;;19.31;51.27;103124.97;5019752;28;20057;-73
2021/03/30 11:22:20;;;;;;;3.55;2.47;;;;;;;19.27;51.41;103116.13;5017468;28;20029;-73
2021/03/30 11:24:45;;;;;;;3.50;2.53;;;;;;;19.28;51.26;103110.91;5022555;28;20030;-73
2021/03/30 11:27:11;;;;;;;4.10;2.67;;;;;;;19.30;51.38;103110.97;5023653;28;20053;-73
2021/03/30 11:34:46;;;;;;;3.97;3.15;;;;;;;19.29;51.11;103103.94;5024915;28;20048;-75
2021/03/30 11:37:35;;;;;;;3.03;2.72;;;;;;;19.31;51.19;103106.59;5009618;28;20037;-75